sensor_id;sensor_type;location;lat;lon;timestamp;P1;durP1;ratioP1;P2;durP2;ratioP2
16015;SDS011;8112;53.592;10.184;2024-02-04T00:03:02;7.67;;;2.67;;
16015;SDS011;8112;53.592;10.184;2024-02-04T00:08:04;8.97;;;2.83;;
16015;SDS011;8112;53.592;10.184;2024-02-04T00:13:06;10.37;;;2.43;;
16015;SDS011;8112;53.592;10.184;2024-02-04T00:18:09;11.27;;;2.47;;
16015;SDS011;8112;53.592;10.184;2024-02-04T00:23:11;11.33;;;2.43;;
16015;SDS011;8112;53.592;10.184;2024-02-04T00:28:12;15.70;;;2.73;;
16015;SDS011;8112;53.592;10.184;2024-02-04T00:33:15;12.00;;;2.50;;
16015;SDS011;8112;53.592;10.184;2024-02-04T00:38:17;8.13;;;2.30;;
16015;SDS011;8112;53.592;10.184;2024-02-04T00:43:19;9.27;;;2.27;;
16015;SDS011;8112;53.592;10.184;2024-02-04T00:48:22;15.33;;;3.57;;
16015;SDS011;8112;53.592;10.184;2024-02-04T00:53:24;8.60;;;2.57;;
16015;SDS011;8112;53.592;10.184;2024-02-04T00:58:26;11.37;;;3.10;;
16015;SDS011;8112;53.592;10.184;2024-02-04T01:03:30;6.73;;;2.00;;
16015;SDS011;8112;53.592;10.184;2024-02-04T01:08:32;9.07;;;2.80;;
16015;SDS011;8112;53.592;10.184;2024-02-04T01:13:34;9.87;;;2.50;;
16015;SDS011;8112;53.592;10.184;2024-02-04T01:18:37;6.63;;;2.47;;
16015;SDS011;8112;53.592;10.184;2024-02-04T01:23:39;12.97;;;2.33;;
16015;SDS011;8112;53.592;10.184;2024-02-04T01:28:41;9.43;;;2.53;;
16015;SDS011;8112;53.592;10.184;2024-02-04T01:33:44;6.43;;;2.27;;
16015;SDS011;8112;53.592;10.184;2024-02-04T01:38:45;10.77;;;2.30;;
16015;SDS011;8112;53.592;10.184;2024-02-04T01:43:47;10.33;;;2.07;;
16015;SDS011;8112;53.592;10.184;2024-02-04T01:48:53;8.37;;;2.27;;
16015;SDS011;8112;53.592;10.184;2024-02-04T01:53:56;7.20;;;2.00;;
16015;SDS011;8112;53.592;10.184;2024-02-04T01:58:57;7.67;;;2.43;;
16015;SDS011;8112;53.592;10.184;2024-02-04T02:04:02;8.73;;;2.67;;
16015;SDS011;8112;53.592;10.184;2024-02-04T02:09:05;7.03;;;1.90;;
16015;SDS011;8112;53.592;10.184;2024-02-04T02:14:08;8.63;;;1.87;;
16015;SDS011;8112;53.592;10.184;2024-02-04T02:19:26;9.37;;;2.10;;
16015;SDS011;8112;53.592;10.184;2024-02-04T02:24:42;9.20;;;1.97;;
16015;SDS011;8112;53.592;10.184;2024-02-04T02:29:47;7.37;;;2.63;;
16015;SDS011;8112;53.592;10.184;2024-02-04T02:34:49;7.97;;;2.00;;
16015;SDS011;8112;53.592;10.184;2024-02-04T02:39:55;9.90;;;2.23;;
16015;SDS011;8112;53.592;10.184;2024-02-04T02:45:00;8.60;;;2.30;;
16015;SDS011;8112;53.592;10.184;2024-02-04T02:50:04;7.87;;;2.20;;
16015;SDS011;8112;53.592;10.184;2024-02-04T02:55:11;8.70;;;2.17;;
16015;SDS011;8112;53.592;10.184;2024-02-04T03:00:13;6.63;;;1.83;;
16015;SDS011;8112;53.592;10.184;2024-02-04T03:05:15;6.80;;;2.03;;
16015;SDS011;8112;53.592;10.184;2024-02-04T03:10:19;10.33;;;2.60;;
16015;SDS011;8112;53.592;10.184;2024-02-04T03:15:20;10.20;;;2.23;;
16015;SDS011;8112;53.592;10.184;2024-02-04T03:20:23;5.73;;;2.23;;
16015;SDS011;8112;53.592;10.184;2024-02-04T03:25:27;6.87;;;1.83;;
16015;SDS011;8112;53.592;10.184;2024-02-04T03:30:30;6.23;;;2.43;;
16015;SDS011;8112;53.592;10.184;2024-02-04T03:35:31;8.50;;;2.20;;
16015;SDS011;8112;53.592;10.184;2024-02-04T03:40:39;5.77;;;2.00;;
16015;SDS011;8112;53.592;10.184;2024-02-04T03:45:43;4.80;;;1.87;;
16015;SDS011;8112;53.592;10.184;2024-02-04T03:50:45;7.37;;;2.03;;
16015;SDS011;8112;53.592;10.184;2024-02-04T03:55:48;8.47;;;1.93;;
16015;SDS011;8112;53.592;10.184;2024-02-04T04:00:50;9.10;;;2.20;;
16015;SDS011;8112;53.592;10.184;2024-02-04T04:05:52;6.50;;;2.30;;
16015;SDS011;8112;53.592;10.184;2024-02-04T04:10:55;8.83;;;1.73;;
16015;SDS011;8112;53.592;10.184;2024-02-04T04:15:57;5.90;;;2.23;;
16015;SDS011;8112;53.592;10.184;2024-02-04T04:20:59;4.93;;;1.73;;
16015;SDS011;8112;53.592;10.184;2024-02-04T04:26:02;14.20;;;2.57;;
16015;SDS011;8112;53.592;10.184;2024-02-04T04:31:04;8.17;;;2.37;;
16015;SDS011;8112;53.592;10.184;2024-02-04T04:36:06;6.80;;;2.03;;
16015;SDS011;8112;53.592;10.184;2024-02-04T04:41:09;9.37;;;2.20;;
16015;SDS011;8112;53.592;10.184;2024-02-04T04:46:11;7.97;;;2.20;;
16015;SDS011;8112;53.592;10.184;2024-02-04T04:51:13;6.30;;;2.10;;
16015;SDS011;8112;53.592;10.184;2024-02-04T04:56:16;8.37;;;2.20;;
16015;SDS011;8112;53.592;10.184;2024-02-04T05:01:18;8.97;;;3.13;;
16015;SDS011;8112;53.592;10.184;2024-02-04T05:06:19;10.13;;;2.50;;
16015;SDS011;8112;53.592;10.184;2024-02-04T05:11:23;8.83;;;2.63;;
16015;SDS011;8112;53.592;10.184;2024-02-04T05:16:24;7.23;;;2.43;;
16015;SDS011;8112;53.592;10.184;2024-02-04T05:21:26;7.67;;;2.47;;
16015;SDS011;8112;53.592;10.184;2024-02-04T05:26:29;4.40;;;2.53;;
16015;SDS011;8112;53.592;10.184;2024-02-04T05:31:30;9.37;;;2.73;;
16015;SDS011;8112;53.592;10.184;2024-02-04T05:36:32;9.83;;;3.43;;
16015;SDS011;8112;53.592;10.184;2024-02-04T05:41:35;7.40;;;2.70;;
16015;SDS011;8112;53.592;10.184;2024-02-04T05:46:37;8.10;;;3.07;;
16015;SDS011;8112;53.592;10.184;2024-02-04T05:51:39;6.63;;;2.40;;
16015;SDS011;8112;53.592;10.184;2024-02-04T05:56:43;6.67;;;2.53;;
16015;SDS011;8112;53.592;10.184;2024-02-04T06:01:44;13.63;;;3.00;;
16015;SDS011;8112;53.592;10.184;2024-02-04T06:06:46;10.03;;;2.60;;
16015;SDS011;8112;53.592;10.184;2024-02-04T06:11:49;13.47;;;3.27;;
16015;SDS011;8112;53.592;10.184;2024-02-04T06:16:51;4.80;;;2.37;;
16015;SDS011;8112;53.592;10.184;2024-02-04T06:21:52;6.93;;;2.40;;
16015;SDS011;8112;53.592;10.184;2024-02-04T06:26:55;11.23;;;2.90;;
16015;SDS011;8112;53.592;10.184;2024-02-04T06:31:57;6.63;;;2.33;;
16015;SDS011;8112;53.592;10.184;2024-02-04T06:36:59;13.63;;;2.77;;
16015;SDS011;8112;53.592;10.184;2024-02-04T06:42:02;11.53;;;3.43;;
16015;SDS011;8112;53.592;10.184;2024-02-04T06:47:04;10.37;;;3.00;;
16015;SDS011;8112;53.592;10.184;2024-02-04T06:52:06;5.77;;;2.03;;
16015;SDS011;8112;53.592;10.184;2024-02-04T06:57:10;7.20;;;2.30;;
16015;SDS011;8112;53.592;10.184;2024-02-04T07:02:11;7.77;;;2.40;;
16015;SDS011;8112;53.592;10.184;2024-02-04T07:07:13;8.73;;;2.30;;
16015;SDS011;8112;53.592;10.184;2024-02-04T07:12:16;15.53;;;3.03;;
16015;SDS011;8112;53.592;10.184;2024-02-04T07:17:18;5.97;;;2.20;;
16015;SDS011;8112;53.592;10.184;2024-02-04T07:22:19;7.80;;;2.30;;
16015;SDS011;8112;53.592;10.184;2024-02-04T07:27:22;8.73;;;2.60;;
16015;SDS011;8112;53.592;10.184;2024-02-04T07:32:24;12.27;;;2.50;;
16015;SDS011;8112;53.592;10.184;2024-02-04T07:37:26;11.47;;;2.87;;
16015;SDS011;8112;53.592;10.184;2024-02-04T07:42:29;13.63;;;2.80;;
16015;SDS011;8112;53.592;10.184;2024-02-04T07:47:30;9.37;;;2.40;;
16015;SDS011;8112;53.592;10.184;2024-02-04T07:52:32;7.47;;;2.30;;
16015;SDS011;8112;53.592;10.184;2024-02-04T07:57:35;9.20;;;2.77;;
16015;SDS011;8112;53.592;10.184;2024-02-04T08:02:37;7.83;;;2.67;;
16015;SDS011;8112;53.592;10.184;2024-02-04T08:07:39;9.13;;;3.00;;
16015;SDS011;8112;53.592;10.184;2024-02-04T08:12:42;6.23;;;2.27;;
16015;SDS011;8112;53.592;10.184;2024-02-04T08:17:44;9.07;;;3.07;;
16015;SDS011;8112;53.592;10.184;2024-02-04T08:22:46;8.33;;;2.90;;
16015;SDS011;8112;53.592;10.184;2024-02-04T08:27:49;6.67;;;2.83;;
16015;SDS011;8112;53.592;10.184;2024-02-04T08:32:50;10.43;;;2.93;;
16015;SDS011;8112;53.592;10.184;2024-02-04T08:37:52;6.63;;;2.93;;
16015;SDS011;8112;53.592;10.184;2024-02-04T08:42:55;9.23;;;3.10;;
16015;SDS011;8112;53.592;10.184;2024-02-04T08:47:57;8.90;;;3.20;;
16015;SDS011;8112;53.592;10.184;2024-02-04T08:52:58;10.57;;;3.17;;
16015;SDS011;8112;53.592;10.184;2024-02-04T08:58:02;4.40;;;2.40;;
16015;SDS011;8112;53.592;10.184;2024-02-04T09:03:03;12.30;;;3.03;;
16015;SDS011;8112;53.592;10.184;2024-02-04T09:08:05;8.47;;;3.30;;
16015;SDS011;8112;53.592;10.184;2024-02-04T09:13:09;10.17;;;3.63;;
16015;SDS011;8112;53.592;10.184;2024-02-04T09:18:10;4.07;;;2.43;;
16015;SDS011;8112;53.592;10.184;2024-02-04T09:23:12;16.60;;;4.13;;
16015;SDS011;8112;53.592;10.184;2024-02-04T09:28:15;8.93;;;2.97;;
16015;SDS011;8112;53.592;10.184;2024-02-04T09:33:17;7.00;;;2.80;;
16015;SDS011;8112;53.592;10.184;2024-02-04T09:38:19;8.67;;;3.23;;
16015;SDS011;8112;53.592;10.184;2024-02-04T09:43:22;8.63;;;3.20;;
16015;SDS011;8112;53.592;10.184;2024-02-04T09:48:25;10.57;;;2.93;;
16015;SDS011;8112;53.592;10.184;2024-02-04T09:53:31;12.77;;;3.93;;
16015;SDS011;8112;53.592;10.184;2024-02-04T09:58:36;7.17;;;2.80;;
16015;SDS011;8112;53.592;10.184;2024-02-04T10:03:37;9.20;;;3.07;;
16015;SDS011;8112;53.592;10.184;2024-02-04T10:08:39;7.10;;;2.70;;
16015;SDS011;8112;53.592;10.184;2024-02-04T10:13:45;10.93;;;3.17;;
16015;SDS011;8112;53.592;10.184;2024-02-04T10:18:48;9.27;;;2.97;;
16015;SDS011;8112;53.592;10.184;2024-02-04T10:23:50;12.03;;;3.40;;
16015;SDS011;8112;53.592;10.184;2024-02-04T10:28:53;8.13;;;2.40;;
16015;SDS011;8112;53.592;10.184;2024-02-04T10:33:55;14.23;;;3.33;;
16015;SDS011;8112;53.592;10.184;2024-02-04T10:38:57;8.33;;;3.63;;
16015;SDS011;8112;53.592;10.184;2024-02-04T10:44:00;11.10;;;3.13;;
16015;SDS011;8112;53.592;10.184;2024-02-04T10:49:05;9.00;;;3.50;;
16015;SDS011;8112;53.592;10.184;2024-02-04T10:54:14;7.33;;;3.77;;
16015;SDS011;8112;53.592;10.184;2024-02-04T10:59:19;12.77;;;3.77;;
16015;SDS011;8112;53.592;10.184;2024-02-04T11:04:22;11.67;;;3.70;;
16015;SDS011;8112;53.592;10.184;2024-02-04T11:09:25;12.83;;;3.57;;
16015;SDS011;8112;53.592;10.184;2024-02-04T11:14:29;9.93;;;3.37;;
16015;SDS011;8112;53.592;10.184;2024-02-04T11:19:36;9.90;;;3.23;;
16015;SDS011;8112;53.592;10.184;2024-02-04T11:24:50;14.97;;;3.37;;
16015;SDS011;8112;53.592;10.184;2024-02-04T11:30:02;8.33;;;2.67;;
16015;SDS011;8112;53.592;10.184;2024-02-04T11:35:05;13.63;;;3.77;;
16015;SDS011;8112;53.592;10.184;2024-02-04T11:40:13;9.53;;;3.33;;
16015;SDS011;8112;53.592;10.184;2024-02-04T11:45:18;7.63;;;2.43;;
16015;SDS011;8112;53.592;10.184;2024-02-04T11:50:26;7.20;;;2.33;;
16015;SDS011;8112;53.592;10.184;2024-02-04T11:55:30;7.13;;;2.60;;
16015;SDS011;8112;53.592;10.184;2024-02-04T12:00:34;10.43;;;2.63;;
16015;SDS011;8112;53.592;10.184;2024-02-04T12:05:36;7.30;;;2.67;;
16015;SDS011;8112;53.592;10.184;2024-02-04T12:10:39;8.87;;;2.73;;
16015;SDS011;8112;53.592;10.184;2024-02-04T12:15:43;8.80;;;2.60;;
16015;SDS011;8112;53.592;10.184;2024-02-04T12:20:46;14.53;;;3.27;;
16015;SDS011;8112;53.592;10.184;2024-02-04T12:25:49;11.73;;;2.60;;
16015;SDS011;8112;53.592;10.184;2024-02-04T12:30:55;7.23;;;2.70;;
16015;SDS011;8112;53.592;10.184;2024-02-04T12:35:58;7.70;;;2.50;;
16015;SDS011;8112;53.592;10.184;2024-02-04T12:41:01;8.00;;;2.63;;
16015;SDS011;8112;53.592;10.184;2024-02-04T12:46:05;15.37;;;2.97;;
16015;SDS011;8112;53.592;10.184;2024-02-04T12:51:08;5.50;;;2.23;;
16015;SDS011;8112;53.592;10.184;2024-02-04T12:56:11;7.53;;;2.20;;
16015;SDS011;8112;53.592;10.184;2024-02-04T13:01:14;8.43;;;2.50;;
16015;SDS011;8112;53.592;10.184;2024-02-04T13:06:16;13.37;;;2.70;;
16015;SDS011;8112;53.592;10.184;2024-02-04T13:11:19;7.00;;;2.43;;
16015;SDS011;8112;53.592;10.184;2024-02-04T13:16:22;7.90;;;3.30;;
16015;SDS011;8112;53.592;10.184;2024-02-04T13:21:25;11.00;;;2.47;;
16015;SDS011;8112;53.592;10.184;2024-02-04T13:26:27;8.30;;;2.53;;
16015;SDS011;8112;53.592;10.184;2024-02-04T13:31:30;7.93;;;2.33;;
16015;SDS011;8112;53.592;10.184;2024-02-04T13:36:32;9.13;;;3.17;;
16015;SDS011;8112;53.592;10.184;2024-02-04T13:41:34;9.20;;;3.13;;
16015;SDS011;8112;53.592;10.184;2024-02-04T13:46:37;8.03;;;2.53;;
16015;SDS011;8112;53.592;10.184;2024-02-04T13:51:42;4.47;;;2.00;;
16015;SDS011;8112;53.592;10.184;2024-02-04T13:56:44;8.73;;;2.93;;
16015;SDS011;8112;53.592;10.184;2024-02-04T14:01:47;13.80;;;2.70;;
16015;SDS011;8112;53.592;10.184;2024-02-04T14:06:50;12.43;;;3.00;;
16015;SDS011;8112;53.592;10.184;2024-02-04T14:11:52;8.63;;;2.20;;
16015;SDS011;8112;53.592;10.184;2024-02-04T14:16:56;7.03;;;2.30;;
16015;SDS011;8112;53.592;10.184;2024-02-04T14:21:57;11.30;;;2.70;;
16015;SDS011;8112;53.592;10.184;2024-02-04T14:26:59;8.67;;;2.40;;
16015;SDS011;8112;53.592;10.184;2024-02-04T14:32:02;10.40;;;3.23;;
16015;SDS011;8112;53.592;10.184;2024-02-04T14:37:05;9.07;;;2.30;;
16015;SDS011;8112;53.592;10.184;2024-02-04T14:42:08;12.33;;;3.23;;
16015;SDS011;8112;53.592;10.184;2024-02-04T14:47:11;8.37;;;2.70;;
16015;SDS011;8112;53.592;10.184;2024-02-04T14:52:13;9.17;;;2.30;;
16015;SDS011;8112;53.592;10.184;2024-02-04T14:57:16;6.87;;;2.60;;
16015;SDS011;8112;53.592;10.184;2024-02-04T15:02:19;13.63;;;2.30;;
16015;SDS011;8112;53.592;10.184;2024-02-04T15:07:21;16.83;;;3.53;;
16015;SDS011;8112;53.592;10.184;2024-02-04T15:12:22;14.77;;;3.00;;
16015;SDS011;8112;53.592;10.184;2024-02-04T15:17:26;7.83;;;3.03;;
16015;SDS011;8112;53.592;10.184;2024-02-04T15:22:28;10.00;;;2.30;;
16015;SDS011;8112;53.592;10.184;2024-02-04T15:27:30;8.70;;;2.40;;
16015;SDS011;8112;53.592;10.184;2024-02-04T15:32:34;6.90;;;2.40;;
16015;SDS011;8112;53.592;10.184;2024-02-04T15:37:36;9.33;;;2.30;;
16015;SDS011;8112;53.592;10.184;2024-02-04T15:42:38;13.17;;;3.07;;
16015;SDS011;8112;53.592;10.184;2024-02-04T15:47:49;5.50;;;1.90;;
16015;SDS011;8112;53.592;10.184;2024-02-04T15:52:53;10.40;;;2.07;;
16015;SDS011;8112;53.592;10.184;2024-02-04T15:57:55;6.23;;;2.87;;
16015;SDS011;8112;53.592;10.184;2024-02-04T16:03:03;9.47;;;3.13;;
16015;SDS011;8112;53.592;10.184;2024-02-04T16:08:05;7.70;;;3.20;;
16015;SDS011;8112;53.592;10.184;2024-02-04T16:13:09;6.87;;;2.53;;
16015;SDS011;8112;53.592;10.184;2024-02-04T16:18:14;8.37;;;2.70;;
16015;SDS011;8112;53.592;10.184;2024-02-04T16:23:16;10.93;;;3.00;;
16015;SDS011;8112;53.592;10.184;2024-02-04T16:28:19;6.00;;;2.73;;
16015;SDS011;8112;53.592;10.184;2024-02-04T16:33:22;11.57;;;3.40;;
16015;SDS011;8112;53.592;10.184;2024-02-04T16:38:24;9.67;;;3.17;;
16015;SDS011;8112;53.592;10.184;2024-02-04T16:43:25;9.13;;;2.80;;
16015;SDS011;8112;53.592;10.184;2024-02-04T16:48:28;11.97;;;3.70;;
16015;SDS011;8112;53.592;10.184;2024-02-04T16:53:30;11.00;;;2.70;;
16015;SDS011;8112;53.592;10.184;2024-02-04T16:58:32;9.37;;;3.47;;
16015;SDS011;8112;53.592;10.184;2024-02-04T17:03:35;10.77;;;3.00;;
16015;SDS011;8112;53.592;10.184;2024-02-04T17:08:37;10.20;;;3.47;;
16015;SDS011;8112;53.592;10.184;2024-02-04T17:13:39;12.07;;;3.67;;
16015;SDS011;8112;53.592;10.184;2024-02-04T17:18:44;8.93;;;3.87;;
16015;SDS011;8112;53.592;10.184;2024-02-04T17:23:51;8.87;;;3.30;;
16015;SDS011;8112;53.592;10.184;2024-02-04T17:29:04;10.47;;;3.80;;
16015;SDS011;8112;53.592;10.184;2024-02-04T17:34:08;9.77;;;4.33;;
16015;SDS011;8112;53.592;10.184;2024-02-04T17:39:10;11.37;;;4.47;;
16015;SDS011;8112;53.592;10.184;2024-02-04T17:44:12;7.47;;;3.20;;
16015;SDS011;8112;53.592;10.184;2024-02-04T17:49:16;7.93;;;3.00;;
16015;SDS011;8112;53.592;10.184;2024-02-04T17:54:17;7.80;;;4.47;;
16015;SDS011;8112;53.592;10.184;2024-02-04T17:59:19;8.77;;;3.70;;
16015;SDS011;8112;53.592;10.184;2024-02-04T18:04:22;8.87;;;3.77;;
16015;SDS011;8112;53.592;10.184;2024-02-04T18:09:24;10.63;;;3.03;;
16015;SDS011;8112;53.592;10.184;2024-02-04T18:14:28;5.50;;;3.13;;
16015;SDS011;8112;53.592;10.184;2024-02-04T18:19:31;4.37;;;3.20;;
16015;SDS011;8112;53.592;10.184;2024-02-04T18:24:33;9.07;;;3.17;;
16015;SDS011;8112;53.592;10.184;2024-02-04T18:29:37;7.87;;;3.17;;
16015;SDS011;8112;53.592;10.184;2024-02-04T18:34:41;9.30;;;3.50;;
16015;SDS011;8112;53.592;10.184;2024-02-04T18:39:42;8.00;;;3.43;;
16015;SDS011;8112;53.592;10.184;2024-02-04T18:44:44;4.30;;;3.83;;
16015;SDS011;8112;53.592;10.184;2024-02-04T18:49:49;6.47;;;3.60;;
16015;SDS011;8112;53.592;10.184;2024-02-04T18:54:54;6.10;;;4.20;;
16015;SDS011;8112;53.592;10.184;2024-02-04T18:59:56;5.20;;;3.77;;
16015;SDS011;8112;53.592;10.184;2024-02-04T19:04:59;5.23;;;3.90;;
16015;SDS011;8112;53.592;10.184;2024-02-04T19:10:01;5.43;;;3.80;;
16015;SDS011;8112;53.592;10.184;2024-02-04T19:15:04;8.63;;;3.67;;
16015;SDS011;8112;53.592;10.184;2024-02-04T19:20:10;9.87;;;3.83;;
16015;SDS011;8112;53.592;10.184;2024-02-04T19:25:12;8.87;;;4.00;;
16015;SDS011;8112;53.592;10.184;2024-02-04T19:30:16;7.67;;;3.87;;
16015;SDS011;8112;53.592;10.184;2024-02-04T19:35:20;7.30;;;4.23;;
16015;SDS011;8112;53.592;10.184;2024-02-04T19:40:23;5.83;;;3.80;;
16015;SDS011;8112;53.592;10.184;2024-02-04T19:45:25;10.27;;;4.73;;
16015;SDS011;8112;53.592;10.184;2024-02-04T19:50:28;8.67;;;4.23;;
16015;SDS011;8112;53.592;10.184;2024-02-04T19:55:30;5.17;;;3.77;;
16015;SDS011;8112;53.592;10.184;2024-02-04T20:00:31;8.50;;;4.43;;
16015;SDS011;8112;53.592;10.184;2024-02-04T20:05:34;6.43;;;4.17;;
16015;SDS011;8112;53.592;10.184;2024-02-04T20:10:36;7.00;;;3.97;;
16015;SDS011;8112;53.592;10.184;2024-02-04T20:15:38;7.83;;;3.80;;
16015;SDS011;8112;53.592;10.184;2024-02-04T20:20:41;4.43;;;3.43;;
16015;SDS011;8112;53.592;10.184;2024-02-04T20:25:43;3.60;;;3.27;;
16015;SDS011;8112;53.592;10.184;2024-02-04T20:30:44;4.13;;;2.77;;
16015;SDS011;8112;53.592;10.184;2024-02-04T20:35:47;4.97;;;2.60;;
16015;SDS011;8112;53.592;10.184;2024-02-04T20:40:49;3.43;;;2.70;;
16015;SDS011;8112;53.592;10.184;2024-02-04T20:45:51;4.17;;;2.57;;
16015;SDS011;8112;53.592;10.184;2024-02-04T20:50:54;4.57;;;2.70;;
16015;SDS011;8112;53.592;10.184;2024-02-04T20:55:56;3.90;;;2.60;;
16015;SDS011;8112;53.592;10.184;2024-02-04T21:00:58;3.80;;;2.97;;
16015;SDS011;8112;53.592;10.184;2024-02-04T21:06:01;3.20;;;2.90;;
16015;SDS011;8112;53.592;10.184;2024-02-04T21:11:03;4.20;;;2.50;;
16015;SDS011;8112;53.592;10.184;2024-02-04T21:16:05;2.70;;;2.50;;
16015;SDS011;8112;53.592;10.184;2024-02-04T21:21:08;2.87;;;2.50;;
16015;SDS011;8112;53.592;10.184;2024-02-04T21:26:11;2.63;;;2.43;;
16015;SDS011;8112;53.592;10.184;2024-02-04T21:31:12;3.03;;;2.70;;
16015;SDS011;8112;53.592;10.184;2024-02-04T21:36:15;5.50;;;3.60;;
16015;SDS011;8112;53.592;10.184;2024-02-04T21:41:17;3.77;;;3.47;;
16015;SDS011;8112;53.592;10.184;2024-02-04T21:46:19;4.07;;;3.30;;
16015;SDS011;8112;53.592;10.184;2024-02-04T21:51:22;4.00;;;3.60;;
16015;SDS011;8112;53.592;10.184;2024-02-04T21:56:24;3.67;;;3.23;;
16015;SDS011;8112;53.592;10.184;2024-02-04T22:01:26;3.30;;;3.00;;
16015;SDS011;8112;53.592;10.184;2024-02-04T22:06:29;3.37;;;2.87;;
16015;SDS011;8112;53.592;10.184;2024-02-04T22:11:31;2.83;;;2.57;;
16015;SDS011;8112;53.592;10.184;2024-02-04T22:16:33;2.73;;;2.30;;
16015;SDS011;8112;53.592;10.184;2024-02-04T22:21:39;2.37;;;2.17;;
16015;SDS011;8112;53.592;10.184;2024-02-04T22:26:42;2.47;;;2.00;;
16015;SDS011;8112;53.592;10.184;2024-02-04T22:31:44;1.83;;;1.70;;
16015;SDS011;8112;53.592;10.184;2024-02-04T22:36:47;1.37;;;1.27;;
16015;SDS011;8112;53.592;10.184;2024-02-04T22:41:48;1.50;;;1.30;;
16015;SDS011;8112;53.592;10.184;2024-02-04T22:46:50;1.97;;;1.03;;
16015;SDS011;8112;53.592;10.184;2024-02-04T22:51:54;2.27;;;1.03;;
16015;SDS011;8112;53.592;10.184;2024-02-04T22:56:55;1.63;;;1.03;;
16015;SDS011;8112;53.592;10.184;2024-02-04T23:01:57;2.10;;;1.50;;
16015;SDS011;8112;53.592;10.184;2024-02-04T23:07:00;2.60;;;1.40;;
16015;SDS011;8112;53.592;10.184;2024-02-04T23:12:02;2.37;;;1.47;;
16015;SDS011;8112;53.592;10.184;2024-02-04T23:17:04;4.67;;;1.80;;
16015;SDS011;8112;53.592;10.184;2024-02-04T23:22:07;6.63;;;2.20;;
16015;SDS011;8112;53.592;10.184;2024-02-04T23:27:09;6.13;;;2.17;;
16015;SDS011;8112;53.592;10.184;2024-02-04T23:32:11;7.57;;;2.30;;
16015;SDS011;8112;53.592;10.184;2024-02-04T23:37:14;7.57;;;2.37;;
16015;SDS011;8112;53.592;10.184;2024-02-04T23:42:16;7.10;;;2.47;;
16015;SDS011;8112;53.592;10.184;2024-02-04T23:47:17;6.50;;;2.47;;
16015;SDS011;8112;53.592;10.184;2024-02-04T23:52:21;10.50;;;2.67;;
16015;SDS011;8112;53.592;10.184;2024-02-04T23:57:24;11.77;;;3.07;;
